sensor_id;sensor_type;location;lat;lon;timestamp;P1;durP1;ratioP1;P2;durP2;ratioP2
11827;SDS011;5971;49.646;8.568;2023-08-24T00:01:45;6.72;;;5.10;;
11827;SDS011;5971;49.646;8.568;2023-08-24T00:04:46;9.50;;;5.47;;
11827;SDS011;5971;49.646;8.568;2023-08-24T00:07:48;7.90;;;5.20;;
11827;SDS011;5971;49.646;8.568;2023-08-24T00:10:50;6.22;;;5.05;;
11827;SDS011;5971;49.646;8.568;2023-08-24T00:13:52;8.15;;;4.78;;
11827;SDS011;5971;49.646;8.568;2023-08-24T00:16:55;8.85;;;5.05;;
11827;SDS011;5971;49.646;8.568;2023-08-24T00:19:56;8.07;;;5.25;;
11827;SDS011;5971;49.646;8.568;2023-08-24T00:22:58;7.00;;;5.22;;
11827;SDS011;5971;49.646;8.568;2023-08-24T00:25:59;7.72;;;5.15;;
11827;SDS011;5971;49.646;8.568;2023-08-24T00:29:01;7.88;;;5.50;;
11827;SDS011;5971;49.646;8.568;2023-08-24T00:32:02;7.00;;;5.35;;
11827;SDS011;5971;49.646;8.568;2023-08-24T00:35:04;9.10;;;6.68;;
11827;SDS011;5971;49.646;8.568;2023-08-24T00:38:09;8.57;;;5.82;;
11827;SDS011;5971;49.646;8.568;2023-08-24T00:41:10;7.80;;;6.35;;
11827;SDS011;5971;49.646;8.568;2023-08-24T00:44:13;9.20;;;5.82;;
11827;SDS011;5971;49.646;8.568;2023-08-24T00:47:15;8.27;;;6.22;;
11827;SDS011;5971;49.646;8.568;2023-08-24T00:50:16;8.68;;;5.40;;
11827;SDS011;5971;49.646;8.568;2023-08-24T00:53:19;7.55;;;5.43;;
11827;SDS011;5971;49.646;8.568;2023-08-24T00:56:20;7.47;;;5.47;;
11827;SDS011;5971;49.646;8.568;2023-08-24T00:59:25;6.25;;;4.97;;
11827;SDS011;5971;49.646;8.568;2023-08-24T01:02:27;9.25;;;5.85;;
11827;SDS011;5971;49.646;8.568;2023-08-24T01:05:28;8.40;;;5.82;;
11827;SDS011;5971;49.646;8.568;2023-08-24T01:08:29;7.90;;;5.47;;
11827;SDS011;5971;49.646;8.568;2023-08-24T01:11:33;7.78;;;6.00;;
11827;SDS011;5971;49.646;8.568;2023-08-24T01:18:16;7.60;;;5.35;;
11827;SDS011;5971;49.646;8.568;2023-08-24T01:24:26;7.07;;;5.10;;
11827;SDS011;5971;49.646;8.568;2023-08-24T01:27:31;11.93;;;5.47;;
11827;SDS011;5971;49.646;8.568;2023-08-24T01:30:33;7.97;;;5.50;;
11827;SDS011;5971;49.646;8.568;2023-08-24T01:33:36;8.07;;;6.13;;
11827;SDS011;5971;49.646;8.568;2023-08-24T01:36:37;9.18;;;6.00;;
11827;SDS011;5971;49.646;8.568;2023-08-24T01:39:58;7.60;;;5.18;;
11827;SDS011;5971;49.646;8.568;2023-08-24T01:43:04;8.00;;;5.35;;
11827;SDS011;5971;49.646;8.568;2023-08-24T01:46:07;10.98;;;5.35;;
11827;SDS011;5971;49.646;8.568;2023-08-24T01:49:08;7.47;;;5.10;;
11827;SDS011;5971;49.646;8.568;2023-08-24T01:52:10;8.02;;;5.68;;
11827;SDS011;5971;49.646;8.568;2023-08-24T01:55:12;6.60;;;5.55;;
11827;SDS011;5971;49.646;8.568;2023-08-24T01:58:14;7.05;;;6.05;;
11827;SDS011;5971;49.646;8.568;2023-08-24T02:01:15;8.82;;;5.63;;
11827;SDS011;5971;49.646;8.568;2023-08-24T02:04:17;7.38;;;5.45;;
11827;SDS011;5971;49.646;8.568;2023-08-24T02:07:18;8.18;;;5.38;;
11827;SDS011;5971;49.646;8.568;2023-08-24T02:10:19;7.88;;;5.13;;
11827;SDS011;5971;49.646;8.568;2023-08-24T02:13:21;7.80;;;6.20;;
11827;SDS011;5971;49.646;8.568;2023-08-24T02:16:22;7.57;;;5.43;;
11827;SDS011;5971;49.646;8.568;2023-08-24T02:19:24;8.43;;;4.75;;
11827;SDS011;5971;49.646;8.568;2023-08-24T02:22:25;8.23;;;4.85;;
11827;SDS011;5971;49.646;8.568;2023-08-24T02:25:26;7.20;;;5.25;;
11827;SDS011;5971;49.646;8.568;2023-08-24T02:28:28;9.13;;;4.90;;
11827;SDS011;5971;49.646;8.568;2023-08-24T02:31:29;7.28;;;5.00;;
11827;SDS011;5971;49.646;8.568;2023-08-24T02:34:31;8.27;;;5.15;;
11827;SDS011;5971;49.646;8.568;2023-08-24T02:37:32;7.05;;;5.65;;
11827;SDS011;5971;49.646;8.568;2023-08-24T02:40:34;8.40;;;5.70;;
11827;SDS011;5971;49.646;8.568;2023-08-24T02:43:35;7.22;;;5.68;;
11827;SDS011;5971;49.646;8.568;2023-08-24T02:46:37;7.65;;;6.13;;
11827;SDS011;5971;49.646;8.568;2023-08-24T02:49:38;6.72;;;4.97;;
11827;SDS011;5971;49.646;8.568;2023-08-24T02:52:40;8.23;;;5.03;;
11827;SDS011;5971;49.646;8.568;2023-08-24T02:55:41;7.47;;;5.63;;
11827;SDS011;5971;49.646;8.568;2023-08-24T02:58:42;7.88;;;5.20;;
11827;SDS011;5971;49.646;8.568;2023-08-24T03:01:44;7.45;;;5.18;;
11827;SDS011;5971;49.646;8.568;2023-08-24T03:04:45;8.63;;;4.90;;
11827;SDS011;5971;49.646;8.568;2023-08-24T03:07:47;9.18;;;5.28;;
11827;SDS011;5971;49.646;8.568;2023-08-24T03:10:48;6.63;;;5.18;;
11827;SDS011;5971;49.646;8.568;2023-08-24T03:13:49;7.35;;;5.05;;
11827;SDS011;5971;49.646;8.568;2023-08-24T03:16:51;7.97;;;5.15;;
11827;SDS011;5971;49.646;8.568;2023-08-24T03:19:52;6.68;;;4.82;;
11827;SDS011;5971;49.646;8.568;2023-08-24T03:22:53;6.90;;;5.15;;
11827;SDS011;5971;49.646;8.568;2023-08-24T03:25:55;7.18;;;5.10;;
11827;SDS011;5971;49.646;8.568;2023-08-24T03:28:56;7.97;;;5.20;;
11827;SDS011;5971;49.646;8.568;2023-08-24T03:31:57;6.78;;;5.00;;
11827;SDS011;5971;49.646;8.568;2023-08-24T03:34:59;8.60;;;5.57;;
11827;SDS011;5971;49.646;8.568;2023-08-24T03:38:01;8.57;;;5.70;;
11827;SDS011;5971;49.646;8.568;2023-08-24T03:41:02;9.45;;;7.45;;
11827;SDS011;5971;49.646;8.568;2023-08-24T03:44:04;10.48;;;6.65;;
11827;SDS011;5971;49.646;8.568;2023-08-24T03:47:05;8.38;;;6.22;;
11827;SDS011;5971;49.646;8.568;2023-08-24T03:50:07;8.43;;;5.80;;
11827;SDS011;5971;49.646;8.568;2023-08-24T03:53:08;8.02;;;5.97;;
11827;SDS011;5971;49.646;8.568;2023-08-24T03:56:09;7.63;;;5.78;;
11827;SDS011;5971;49.646;8.568;2023-08-24T03:59:11;7.97;;;6.63;;
11827;SDS011;5971;49.646;8.568;2023-08-24T04:02:12;7.68;;;5.95;;
11827;SDS011;5971;49.646;8.568;2023-08-24T04:05:14;9.68;;;5.82;;
11827;SDS011;5971;49.646;8.568;2023-08-24T04:08:15;7.60;;;5.63;;
11827;SDS011;5971;49.646;8.568;2023-08-24T04:11:16;7.65;;;5.80;;
11827;SDS011;5971;49.646;8.568;2023-08-24T04:14:18;11.05;;;5.93;;
11827;SDS011;5971;49.646;8.568;2023-08-24T04:17:19;9.10;;;5.78;;
11827;SDS011;5971;49.646;8.568;2023-08-24T04:20:20;7.32;;;5.38;;
11827;SDS011;5971;49.646;8.568;2023-08-24T04:23:25;9.00;;;5.47;;
11827;SDS011;5971;49.646;8.568;2023-08-24T04:26:27;7.93;;;5.63;;
11827;SDS011;5971;49.646;8.568;2023-08-24T04:29:29;8.18;;;5.93;;
11827;SDS011;5971;49.646;8.568;2023-08-24T04:32:31;7.63;;;5.45;;
11827;SDS011;5971;49.646;8.568;2023-08-24T04:35:33;10.10;;;5.55;;
11827;SDS011;5971;49.646;8.568;2023-08-24T04:38:35;6.57;;;5.18;;
11827;SDS011;5971;49.646;8.568;2023-08-24T04:41:36;8.52;;;5.60;;
11827;SDS011;5971;49.646;8.568;2023-08-24T04:44:37;6.57;;;5.15;;
11827;SDS011;5971;49.646;8.568;2023-08-24T04:47:39;9.73;;;6.20;;
11827;SDS011;5971;49.646;8.568;2023-08-24T04:50:44;7.50;;;5.50;;
11827;SDS011;5971;49.646;8.568;2023-08-24T04:53:48;8.07;;;5.40;;
11827;SDS011;5971;49.646;8.568;2023-08-24T04:56:49;6.88;;;5.05;;
11827;SDS011;5971;49.646;8.568;2023-08-24T04:59:50;9.02;;;6.82;;
11827;SDS011;5971;49.646;8.568;2023-08-24T05:02:52;8.68;;;5.80;;
11827;SDS011;5971;49.646;8.568;2023-08-24T05:05:53;10.68;;;6.22;;
11827;SDS011;5971;49.646;8.568;2023-08-24T05:08:54;8.25;;;5.70;;
11827;SDS011;5971;49.646;8.568;2023-08-24T05:11:56;6.68;;;5.55;;
11827;SDS011;5971;49.646;8.568;2023-08-24T05:14:57;9.38;;;6.70;;
11827;SDS011;5971;49.646;8.568;2023-08-24T05:17:58;8.38;;;5.80;;
11827;SDS011;5971;49.646;8.568;2023-08-24T05:21:01;8.43;;;5.43;;
11827;SDS011;5971;49.646;8.568;2023-08-24T05:24:02;8.38;;;6.13;;
11827;SDS011;5971;49.646;8.568;2023-08-24T05:27:05;8.82;;;6.10;;
11827;SDS011;5971;49.646;8.568;2023-08-24T05:30:06;8.63;;;6.20;;
11827;SDS011;5971;49.646;8.568;2023-08-24T05:33:08;6.50;;;4.50;;
11827;SDS011;5971;49.646;8.568;2023-08-24T05:36:09;9.05;;;5.72;;
11827;SDS011;5971;49.646;8.568;2023-08-24T05:39:11;8.45;;;5.20;;
11827;SDS011;5971;49.646;8.568;2023-08-24T05:42:12;6.80;;;5.05;;
11827;SDS011;5971;49.646;8.568;2023-08-24T05:45:13;10.52;;;7.15;;
11827;SDS011;5971;49.646;8.568;2023-08-24T05:48:15;10.55;;;6.80;;
11827;SDS011;5971;49.646;8.568;2023-08-24T05:51:16;8.48;;;6.72;;
11827;SDS011;5971;49.646;8.568;2023-08-24T05:54:18;9.80;;;6.95;;
11827;SDS011;5971;49.646;8.568;2023-08-24T05:57:19;8.05;;;6.30;;
11827;SDS011;5971;49.646;8.568;2023-08-24T06:00:21;8.40;;;6.75;;
11827;SDS011;5971;49.646;8.568;2023-08-24T06:03:24;8.32;;;6.45;;
11827;SDS011;5971;49.646;8.568;2023-08-24T06:06:25;8.77;;;7.30;;
11827;SDS011;5971;49.646;8.568;2023-08-24T06:09:27;7.88;;;7.00;;
11827;SDS011;5971;49.646;8.568;2023-08-24T06:12:28;9.38;;;6.95;;
11827;SDS011;5971;49.646;8.568;2023-08-24T06:15:29;10.80;;;6.82;;
11827;SDS011;5971;49.646;8.568;2023-08-24T06:18:31;10.02;;;8.00;;
11827;SDS011;5971;49.646;8.568;2023-08-24T06:21:32;8.80;;;7.00;;
11827;SDS011;5971;49.646;8.568;2023-08-24T06:24:33;10.50;;;8.60;;
11827;SDS011;5971;49.646;8.568;2023-08-24T06:27:35;9.23;;;8.00;;
11827;SDS011;5971;49.646;8.568;2023-08-24T06:30:37;8.50;;;7.10;;
11827;SDS011;5971;49.646;8.568;2023-08-24T06:33:40;10.15;;;7.82;;
11827;SDS011;5971;49.646;8.568;2023-08-24T06:36:41;9.75;;;6.65;;
11827;SDS011;5971;49.646;8.568;2023-08-24T06:39:42;9.57;;;6.93;;
11827;SDS011;5971;49.646;8.568;2023-08-24T06:42:44;10.05;;;7.25;;
11827;SDS011;5971;49.646;8.568;2023-08-24T06:45:45;10.65;;;7.07;;
11827;SDS011;5971;49.646;8.568;2023-08-24T06:48:46;10.65;;;8.07;;
11827;SDS011;5971;49.646;8.568;2023-08-24T06:51:48;9.75;;;7.25;;
11827;SDS011;5971;49.646;8.568;2023-08-24T06:54:49;9.60;;;7.20;;
11827;SDS011;5971;49.646;8.568;2023-08-24T06:57:54;8.38;;;6.78;;
11827;SDS011;5971;49.646;8.568;2023-08-24T07:00:55;9.90;;;7.50;;
11827;SDS011;5971;49.646;8.568;2023-08-24T07:03:58;12.65;;;7.43;;
11827;SDS011;5971;49.646;8.568;2023-08-24T07:07:00;9.70;;;7.07;;
11827;SDS011;5971;49.646;8.568;2023-08-24T07:10:01;9.38;;;6.82;;
11827;SDS011;5971;49.646;8.568;2023-08-24T07:13:04;8.73;;;6.38;;
11827;SDS011;5971;49.646;8.568;2023-08-24T07:16:06;9.35;;;7.00;;
11827;SDS011;5971;49.646;8.568;2023-08-24T07:19:08;9.50;;;8.45;;
11827;SDS011;5971;49.646;8.568;2023-08-24T07:22:10;8.90;;;6.10;;
11827;SDS011;5971;49.646;8.568;2023-08-24T07:25:12;10.13;;;8.93;;
11827;SDS011;5971;49.646;8.568;2023-08-24T07:28:15;7.90;;;6.00;;
11827;SDS011;5971;49.646;8.568;2023-08-24T07:31:16;6.85;;;5.90;;
11827;SDS011;5971;49.646;8.568;2023-08-24T07:34:18;8.13;;;5.50;;
11827;SDS011;5971;49.646;8.568;2023-08-24T07:37:19;6.28;;;5.13;;
11827;SDS011;5971;49.646;8.568;2023-08-24T07:40:20;9.70;;;5.60;;
11827;SDS011;5971;49.646;8.568;2023-08-24T07:43:22;5.78;;;4.60;;
11827;SDS011;5971;49.646;8.568;2023-08-24T07:46:23;7.90;;;4.95;;
11827;SDS011;5971;49.646;8.568;2023-08-24T07:49:25;7.05;;;5.00;;
11827;SDS011;5971;49.646;8.568;2023-08-24T07:52:26;6.05;;;5.05;;
11827;SDS011;5971;49.646;8.568;2023-08-24T07:58:31;7.30;;;5.57;;
11827;SDS011;5971;49.646;8.568;2023-08-24T08:01:33;7.25;;;5.30;;
11827;SDS011;5971;49.646;8.568;2023-08-24T08:04:34;9.63;;;5.22;;
11827;SDS011;5971;49.646;8.568;2023-08-24T08:07:36;6.65;;;4.95;;
11827;SDS011;5971;49.646;8.568;2023-08-24T08:10:37;6.15;;;5.22;;
11827;SDS011;5971;49.646;8.568;2023-08-24T08:13:38;6.75;;;5.00;;
11827;SDS011;5971;49.646;8.568;2023-08-24T08:16:40;8.95;;;5.55;;
11827;SDS011;5971;49.646;8.568;2023-08-24T08:19:41;6.00;;;4.95;;
11827;SDS011;5971;49.646;8.568;2023-08-24T08:22:42;6.53;;;4.80;;
11827;SDS011;5971;49.646;8.568;2023-08-24T08:25:44;6.90;;;5.82;;
11827;SDS011;5971;49.646;8.568;2023-08-24T08:28:45;8.30;;;5.03;;
11827;SDS011;5971;49.646;8.568;2023-08-24T08:31:46;11.50;;;4.72;;
11827;SDS011;5971;49.646;8.568;2023-08-24T08:34:48;9.70;;;4.68;;
11827;SDS011;5971;49.646;8.568;2023-08-24T08:37:49;5.40;;;4.47;;
11827;SDS011;5971;49.646;8.568;2023-08-24T08:40:55;7.93;;;5.07;;
11827;SDS011;5971;49.646;8.568;2023-08-24T08:43:57;6.25;;;4.30;;
11827;SDS011;5971;49.646;8.568;2023-08-24T08:46:59;5.10;;;3.65;;
11827;SDS011;5971;49.646;8.568;2023-08-24T08:50:01;6.18;;;3.75;;
11827;SDS011;5971;49.646;8.568;2023-08-24T08:56:05;6.80;;;4.20;;
11827;SDS011;5971;49.646;8.568;2023-08-24T08:59:08;7.95;;;3.83;;
11827;SDS011;5971;49.646;8.568;2023-08-24T09:02:11;6.55;;;4.32;;
11827;SDS011;5971;49.646;8.568;2023-08-24T09:05:14;6.07;;;3.10;;
11827;SDS011;5971;49.646;8.568;2023-08-24T09:08:16;4.47;;;2.88;;
11827;SDS011;5971;49.646;8.568;2023-08-24T09:11:17;4.85;;;2.63;;
11827;SDS011;5971;49.646;8.568;2023-08-24T09:14:19;4.28;;;3.60;;
11827;SDS011;5971;49.646;8.568;2023-08-24T09:17:21;3.70;;;2.80;;
11827;SDS011;5971;49.646;8.568;2023-08-24T09:20:23;5.25;;;3.03;;
11827;SDS011;5971;49.646;8.568;2023-08-24T09:23:28;4.43;;;2.53;;
11827;SDS011;5971;49.646;8.568;2023-08-24T09:26:32;3.92;;;2.80;;
11827;SDS011;5971;49.646;8.568;2023-08-24T09:29:36;4.15;;;2.70;;
11827;SDS011;5971;49.646;8.568;2023-08-24T09:32:37;3.50;;;2.55;;
11827;SDS011;5971;49.646;8.568;2023-08-24T09:35:38;4.03;;;2.67;;
11827;SDS011;5971;49.646;8.568;2023-08-24T09:38:46;4.38;;;2.60;;
11827;SDS011;5971;49.646;8.568;2023-08-24T09:41:51;3.50;;;2.50;;
11827;SDS011;5971;49.646;8.568;2023-08-24T09:44:53;3.70;;;2.65;;
11827;SDS011;5971;49.646;8.568;2023-08-24T09:47:54;4.78;;;2.47;;
11827;SDS011;5971;49.646;8.568;2023-08-24T09:50:56;3.70;;;2.75;;
11827;SDS011;5971;49.646;8.568;2023-08-24T09:53:58;5.13;;;2.60;;
11827;SDS011;5971;49.646;8.568;2023-08-24T09:57:02;3.97;;;2.78;;
11827;SDS011;5971;49.646;8.568;2023-08-24T10:00:08;4.80;;;2.78;;
11827;SDS011;5971;49.646;8.568;2023-08-24T10:03:16;4.35;;;2.63;;
11827;SDS011;5971;49.646;8.568;2023-08-24T10:06:21;4.72;;;3.05;;
11827;SDS011;5971;49.646;8.568;2023-08-24T10:09:31;3.85;;;2.58;;
11827;SDS011;5971;49.646;8.568;2023-08-24T10:12:38;3.75;;;2.60;;
11827;SDS011;5971;49.646;8.568;2023-08-24T10:15:40;4.70;;;2.40;;
11827;SDS011;5971;49.646;8.568;2023-08-24T10:18:48;4.53;;;2.63;;
11827;SDS011;5971;49.646;8.568;2023-08-24T10:21:50;4.85;;;2.65;;
11827;SDS011;5971;49.646;8.568;2023-08-24T10:24:54;3.78;;;2.60;;
11827;SDS011;5971;49.646;8.568;2023-08-24T10:28:04;4.72;;;2.53;;
11827;SDS011;5971;49.646;8.568;2023-08-24T10:31:07;3.55;;;2.60;;
11827;SDS011;5971;49.646;8.568;2023-08-24T10:34:09;3.53;;;2.60;;
11827;SDS011;5971;49.646;8.568;2023-08-24T10:37:11;3.40;;;2.50;;
11827;SDS011;5971;49.646;8.568;2023-08-24T10:40:12;5.88;;;2.72;;
11827;SDS011;5971;49.646;8.568;2023-08-24T10:43:14;5.28;;;2.70;;
11827;SDS011;5971;49.646;8.568;2023-08-24T10:46:16;4.05;;;2.55;;
11827;SDS011;5971;49.646;8.568;2023-08-24T10:49:18;5.03;;;3.55;;
11827;SDS011;5971;49.646;8.568;2023-08-24T10:52:23;4.95;;;3.20;;
11827;SDS011;5971;49.646;8.568;2023-08-24T10:55:26;4.60;;;2.63;;
11827;SDS011;5971;49.646;8.568;2023-08-24T10:58:32;4.45;;;3.20;;
11827;SDS011;5971;49.646;8.568;2023-08-24T11:01:35;4.25;;;3.10;;
11827;SDS011;5971;49.646;8.568;2023-08-24T11:04:39;4.93;;;3.20;;
11827;SDS011;5971;49.646;8.568;2023-08-24T11:07:56;4.00;;;2.40;;
11827;SDS011;5971;49.646;8.568;2023-08-24T11:10:58;4.70;;;3.08;;
11827;SDS011;5971;49.646;8.568;2023-08-24T11:14:16;4.70;;;3.78;;
11827;SDS011;5971;49.646;8.568;2023-08-24T11:17:18;6.28;;;3.20;;
11827;SDS011;5971;49.646;8.568;2023-08-24T11:20:21;3.72;;;3.10;;
11827;SDS011;5971;49.646;8.568;2023-08-24T11:23:23;4.22;;;3.40;;
11827;SDS011;5971;49.646;8.568;2023-08-24T11:26:25;3.47;;;3.10;;
11827;SDS011;5971;49.646;8.568;2023-08-24T11:29:27;4.03;;;3.13;;
11827;SDS011;5971;49.646;8.568;2023-08-24T11:32:28;5.22;;;3.42;;
11827;SDS011;5971;49.646;8.568;2023-08-24T11:35:34;4.55;;;3.03;;
11827;SDS011;5971;49.646;8.568;2023-08-24T11:38:39;3.80;;;3.10;;
11827;SDS011;5971;49.646;8.568;2023-08-24T11:41:41;4.95;;;3.40;;
11827;SDS011;5971;49.646;8.568;2023-08-24T11:44:45;4.18;;;2.88;;
11827;SDS011;5971;49.646;8.568;2023-08-24T11:47:50;3.75;;;2.60;;
11827;SDS011;5971;49.646;8.568;2023-08-24T11:50:52;3.63;;;2.95;;
11827;SDS011;5971;49.646;8.568;2023-08-24T11:53:55;4.05;;;2.40;;
11827;SDS011;5971;49.646;8.568;2023-08-24T11:56:56;4.63;;;2.45;;
11827;SDS011;5971;49.646;8.568;2023-08-24T11:59:58;4.57;;;2.72;;
11827;SDS011;5971;49.646;8.568;2023-08-24T12:02:59;4.57;;;2.90;;
11827;SDS011;5971;49.646;8.568;2023-08-24T12:06:01;3.95;;;2.63;;
11827;SDS011;5971;49.646;8.568;2023-08-24T12:09:04;4.85;;;2.60;;
11827;SDS011;5971;49.646;8.568;2023-08-24T12:12:11;4.05;;;2.83;;
11827;SDS011;5971;49.646;8.568;2023-08-24T12:15:16;4.60;;;2.70;;
11827;SDS011;5971;49.646;8.568;2023-08-24T12:18:18;3.85;;;2.55;;
11827;SDS011;5971;49.646;8.568;2023-08-24T12:21:21;3.85;;;2.65;;
11827;SDS011;5971;49.646;8.568;2023-08-24T12:24:22;5.68;;;4.18;;
11827;SDS011;5971;49.646;8.568;2023-08-24T12:27:25;4.85;;;2.65;;
11827;SDS011;5971;49.646;8.568;2023-08-24T12:30:27;5.25;;;3.15;;
11827;SDS011;5971;49.646;8.568;2023-08-24T12:33:29;3.95;;;3.38;;
11827;SDS011;5971;49.646;8.568;2023-08-24T12:36:34;4.30;;;3.15;;
11827;SDS011;5971;49.646;8.568;2023-08-24T12:39:41;4.18;;;2.80;;
11827;SDS011;5971;49.646;8.568;2023-08-24T12:42:42;4.40;;;3.55;;
11827;SDS011;5971;49.646;8.568;2023-08-24T12:45:43;3.92;;;2.78;;
11827;SDS011;5971;49.646;8.568;2023-08-24T12:48:45;5.13;;;2.90;;
11827;SDS011;5971;49.646;8.568;2023-08-24T12:51:46;4.13;;;2.92;;
11827;SDS011;5971;49.646;8.568;2023-08-24T12:54:48;5.15;;;3.70;;
11827;SDS011;5971;49.646;8.568;2023-08-24T12:57:50;4.70;;;3.15;;
11827;SDS011;5971;49.646;8.568;2023-08-24T13:00:51;5.25;;;3.50;;
11827;SDS011;5971;49.646;8.568;2023-08-24T13:03:53;4.43;;;2.50;;
11827;SDS011;5971;49.646;8.568;2023-08-24T13:06:54;4.90;;;3.40;;
11827;SDS011;5971;49.646;8.568;2023-08-24T13:09:55;7.10;;;3.72;;
11827;SDS011;5971;49.646;8.568;2023-08-24T13:12:57;4.75;;;3.95;;
11827;SDS011;5971;49.646;8.568;2023-08-24T13:15:58;4.82;;;3.03;;
11827;SDS011;5971;49.646;8.568;2023-08-24T13:19:00;4.10;;;3.45;;
11827;SDS011;5971;49.646;8.568;2023-08-24T13:22:01;6.60;;;3.90;;
11827;SDS011;5971;49.646;8.568;2023-08-24T13:25:03;5.38;;;3.92;;
11827;SDS011;5971;49.646;8.568;2023-08-24T13:28:05;5.35;;;3.30;;
11827;SDS011;5971;49.646;8.568;2023-08-24T13:31:06;5.25;;;3.47;;
11827;SDS011;5971;49.646;8.568;2023-08-24T13:34:09;5.15;;;3.40;;
11827;SDS011;5971;49.646;8.568;2023-08-24T13:37:11;4.60;;;3.20;;
11827;SDS011;5971;49.646;8.568;2023-08-24T13:40:12;5.65;;;3.38;;
11827;SDS011;5971;49.646;8.568;2023-08-24T13:43:13;4.88;;;3.30;;
11827;SDS011;5971;49.646;8.568;2023-08-24T13:46:15;5.22;;;4.30;;
11827;SDS011;5971;49.646;8.568;2023-08-24T13:49:19;6.70;;;3.78;;
11827;SDS011;5971;49.646;8.568;2023-08-24T13:52:40;6.18;;;3.50;;
11827;SDS011;5971;49.646;8.568;2023-08-24T13:55:41;4.72;;;3.22;;
11827;SDS011;5971;49.646;8.568;2023-08-24T13:58:42;5.07;;;4.07;;
11827;SDS011;5971;49.646;8.568;2023-08-24T14:01:45;5.18;;;3.90;;
11827;SDS011;5971;49.646;8.568;2023-08-24T14:04:46;5.47;;;4.03;;
11827;SDS011;5971;49.646;8.568;2023-08-24T14:07:48;5.85;;;3.45;;
11827;SDS011;5971;49.646;8.568;2023-08-24T14:10:49;6.70;;;4.38;;
11827;SDS011;5971;49.646;8.568;2023-08-24T14:13:51;5.72;;;3.20;;
11827;SDS011;5971;49.646;8.568;2023-08-24T14:16:55;4.82;;;3.20;;
11827;SDS011;5971;49.646;8.568;2023-08-24T14:19:57;4.57;;;3.38;;
11827;SDS011;5971;49.646;8.568;2023-08-24T14:22:58;6.07;;;4.03;;
11827;SDS011;5971;49.646;8.568;2023-08-24T14:26:00;5.00;;;3.55;;
11827;SDS011;5971;49.646;8.568;2023-08-24T14:29:01;5.45;;;3.40;;
11827;SDS011;5971;49.646;8.568;2023-08-24T14:32:02;4.90;;;3.70;;
11827;SDS011;5971;49.646;8.568;2023-08-24T14:35:04;5.85;;;3.97;;
11827;SDS011;5971;49.646;8.568;2023-08-24T14:38:05;5.07;;;3.40;;
11827;SDS011;5971;49.646;8.568;2023-08-24T14:41:08;5.70;;;3.90;;
11827;SDS011;5971;49.646;8.568;2023-08-24T14:44:10;5.95;;;3.97;;
11827;SDS011;5971;49.646;8.568;2023-08-24T14:47:11;6.65;;;4.32;;
11827;SDS011;5971;49.646;8.568;2023-08-24T14:50:12;7.10;;;4.70;;
11827;SDS011;5971;49.646;8.568;2023-08-24T14:53:14;6.32;;;4.97;;
11827;SDS011;5971;49.646;8.568;2023-08-24T14:56:15;7.55;;;5.20;;
11827;SDS011;5971;49.646;8.568;2023-08-24T14:59:17;8.85;;;6.65;;
11827;SDS011;5971;49.646;8.568;2023-08-24T15:02:18;10.13;;;7.10;;
11827;SDS011;5971;49.646;8.568;2023-08-24T15:05:20;11.18;;;8.20;;
11827;SDS011;5971;49.646;8.568;2023-08-24T15:08:30;10.05;;;7.50;;
11827;SDS011;5971;49.646;8.568;2023-08-24T15:11:32;12.57;;;7.70;;
11827;SDS011;5971;49.646;8.568;2023-08-24T15:14:33;10.15;;;7.63;;
11827;SDS011;5971;49.646;8.568;2023-08-24T15:17:35;12.05;;;7.70;;
11827;SDS011;5971;49.646;8.568;2023-08-24T15:20:37;9.52;;;7.32;;
11827;SDS011;5971;49.646;8.568;2023-08-24T15:23:38;9.25;;;7.03;;
11827;SDS011;5971;49.646;8.568;2023-08-24T15:26:40;10.82;;;7.30;;
11827;SDS011;5971;49.646;8.568;2023-08-24T15:29:42;9.63;;;7.22;;
11827;SDS011;5971;49.646;8.568;2023-08-24T15:32:44;8.85;;;6.65;;
11827;SDS011;5971;49.646;8.568;2023-08-24T15:35:46;14.02;;;6.97;;
11827;SDS011;5971;49.646;8.568;2023-08-24T15:38:47;8.60;;;6.63;;
11827;SDS011;5971;49.646;8.568;2023-08-24T15:41:49;7.30;;;5.80;;
11827;SDS011;5971;49.646;8.568;2023-08-24T15:44:51;8.15;;;5.68;;
11827;SDS011;5971;49.646;8.568;2023-08-24T15:47:52;7.20;;;5.20;;
11827;SDS011;5971;49.646;8.568;2023-08-24T15:50:56;6.95;;;5.30;;
11827;SDS011;5971;49.646;8.568;2023-08-24T15:53:58;7.30;;;4.82;;
11827;SDS011;5971;49.646;8.568;2023-08-24T15:56:59;7.20;;;5.00;;
11827;SDS011;5971;49.646;8.568;2023-08-24T16:00:00;5.95;;;4.85;;
11827;SDS011;5971;49.646;8.568;2023-08-24T16:03:04;6.78;;;4.95;;
11827;SDS011;5971;49.646;8.568;2023-08-24T16:06:06;7.40;;;4.38;;
11827;SDS011;5971;49.646;8.568;2023-08-24T16:09:08;6.70;;;4.88;;
11827;SDS011;5971;49.646;8.568;2023-08-24T16:12:09;7.13;;;4.95;;
11827;SDS011;5971;49.646;8.568;2023-08-24T16:15:11;7.35;;;5.30;;
11827;SDS011;5971;49.646;8.568;2023-08-24T16:18:12;7.40;;;5.50;;
11827;SDS011;5971;49.646;8.568;2023-08-24T16:21:13;7.88;;;5.47;;
11827;SDS011;5971;49.646;8.568;2023-08-24T16:24:15;7.00;;;5.53;;
11827;SDS011;5971;49.646;8.568;2023-08-24T16:27:16;8.15;;;5.55;;
11827;SDS011;5971;49.646;8.568;2023-08-24T16:30:17;6.20;;;5.03;;
11827;SDS011;5971;49.646;8.568;2023-08-24T16:33:20;6.55;;;4.95;;
11827;SDS011;5971;49.646;8.568;2023-08-24T16:36:21;6.80;;;5.40;;
11827;SDS011;5971;49.646;8.568;2023-08-24T16:39:23;7.80;;;5.25;;
11827;SDS011;5971;49.646;8.568;2023-08-24T16:42:24;5.68;;;4.75;;
11827;SDS011;5971;49.646;8.568;2023-08-24T16:45:25;6.70;;;5.32;;
11827;SDS011;5971;49.646;8.568;2023-08-24T16:48:27;6.45;;;5.18;;
11827;SDS011;5971;49.646;8.568;2023-08-24T16:51:28;9.20;;;5.80;;
11827;SDS011;5971;49.646;8.568;2023-08-24T16:54:30;6.60;;;4.82;;
11827;SDS011;5971;49.646;8.568;2023-08-24T16:57:32;8.88;;;5.13;;
11827;SDS011;5971;49.646;8.568;2023-08-24T17:00:33;6.13;;;5.25;;
11827;SDS011;5971;49.646;8.568;2023-08-24T17:03:35;8.05;;;5.95;;
11827;SDS011;5971;49.646;8.568;2023-08-24T17:06:37;10.68;;;6.35;;
11827;SDS011;5971;49.646;8.568;2023-08-24T17:09:39;6.68;;;5.85;;
11827;SDS011;5971;49.646;8.568;2023-08-24T17:12:41;7.57;;;6.28;;
11827;SDS011;5971;49.646;8.568;2023-08-24T17:15:47;7.40;;;5.53;;
11827;SDS011;5971;49.646;8.568;2023-08-24T17:18:49;9.02;;;7.38;;
11827;SDS011;5971;49.646;8.568;2023-08-24T17:21:50;8.23;;;5.53;;
11827;SDS011;5971;49.646;8.568;2023-08-24T17:24:51;6.80;;;5.40;;
11827;SDS011;5971;49.646;8.568;2023-08-24T17:27:53;7.97;;;4.85;;
11827;SDS011;5971;49.646;8.568;2023-08-24T17:30:56;10.02;;;5.60;;
11827;SDS011;5971;49.646;8.568;2023-08-24T17:33:57;11.10;;;6.30;;
11827;SDS011;5971;49.646;8.568;2023-08-24T17:36:59;9.80;;;7.15;;
11827;SDS011;5971;49.646;8.568;2023-08-24T17:40:01;11.27;;;6.80;;
11827;SDS011;5971;49.646;8.568;2023-08-24T17:43:06;11.13;;;8.25;;
11827;SDS011;5971;49.646;8.568;2023-08-24T17:46:07;14.90;;;9.88;;
11827;SDS011;5971;49.646;8.568;2023-08-24T17:49:11;14.43;;;9.93;;
11827;SDS011;5971;49.646;8.568;2023-08-24T17:52:13;14.15;;;10.02;;
11827;SDS011;5971;49.646;8.568;2023-08-24T17:55:14;16.38;;;10.70;;
11827;SDS011;5971;49.646;8.568;2023-08-24T17:58:16;17.95;;;11.75;;
11827;SDS011;5971;49.646;8.568;2023-08-24T18:01:18;18.77;;;12.82;;
11827;SDS011;5971;49.646;8.568;2023-08-24T18:04:19;18.38;;;12.20;;
11827;SDS011;5971;49.646;8.568;2023-08-24T18:07:20;19.02;;;12.35;;
11827;SDS011;5971;49.646;8.568;2023-08-24T18:10:22;19.60;;;11.98;;
11827;SDS011;5971;49.646;8.568;2023-08-24T18:13:24;19.65;;;12.57;;
11827;SDS011;5971;49.646;8.568;2023-08-24T18:16:25;18.73;;;13.43;;
11827;SDS011;5971;49.646;8.568;2023-08-24T18:19:27;16.67;;;11.30;;
11827;SDS011;5971;49.646;8.568;2023-08-24T18:22:28;15.95;;;10.32;;
11827;SDS011;5971;49.646;8.568;2023-08-24T18:25:30;13.52;;;9.13;;
11827;SDS011;5971;49.646;8.568;2023-08-24T18:28:31;16.52;;;10.35;;
11827;SDS011;5971;49.646;8.568;2023-08-24T18:31:32;13.63;;;10.43;;
11827;SDS011;5971;49.646;8.568;2023-08-24T18:34:34;17.98;;;12.88;;
11827;SDS011;5971;49.646;8.568;2023-08-24T18:37:35;15.68;;;11.77;;
11827;SDS011;5971;49.646;8.568;2023-08-24T18:40:38;16.58;;;12.73;;
11827;SDS011;5971;49.646;8.568;2023-08-24T18:43:40;20.48;;;14.52;;